Aviation Digital Data Service (ADDS)

Output produced by METARs form (2310 UTC 15 August 2018)
found at http://www.aviationweather.gov/adds/metars/
 
TAF MWCB 151700Z 1518/1618 12010KT 9999 VCSH SCT016 
     TEMPO 1601/1606 9000 TARA SCT014CB SCT030
       
TAF MWCR 151700Z 1518/1618 12010KT 9000 TS VCSH SCT016 
     BECMG 1610/1612 07010KT 9999 SCT018